createdAt,value
2019-06-10T19:30:23.287Z,95535.48
2019-06-10T19:33:12.728Z,95543.55
2019-06-10T19:36:02.794Z,95565.35
2019-06-10T19:38:50.432Z,95577.11
2019-06-10T19:41:38.756Z,95595.28
2019-06-10T19:44:26.586Z,95611.16
2019-06-10T19:47:14.633Z,95603.55
2019-06-10T19:50:03.011Z,95591.10
2019-06-10T19:52:52.020Z,95591.22
2019-06-10T19:55:39.548Z,95588.69
2019-06-10T19:58:32.368Z,95578.70
2019-06-10T20:01:19.720Z,95578.09
2019-06-10T20:04:07.173Z,95582.37
2019-06-10T20:06:54.671Z,95571.56
2019-06-10T20:09:45.116Z,95562.17
2019-06-10T20:12:34.201Z,95544.15
2019-06-10T20:15:22.898Z,95534.23
2019-06-10T20:18:12.277Z,95516.13
2019-06-10T20:20:59.433Z,95514.59
2019-06-10T20:23:47.839Z,95510.02
2019-06-10T20:26:36.654Z,95488.41
2019-06-10T20:29:24.234Z,95498.02
2019-06-10T20:32:14.016Z,95508.69
2019-06-10T20:35:02.972Z,95505.59
2019-06-10T20:37:50.723Z,95504.28
2019-06-10T20:40:38.241Z,95513.06
2019-06-10T20:43:25.510Z,95521.80
2019-06-10T20:46:13.312Z,95535.96
2019-06-10T20:49:03.455Z,95540.33
2019-06-10T20:52:07.081Z,95553.48
2019-06-10T20:54:42.966Z,95563.21
2019-06-10T20:57:29.125Z,95571.19
2019-06-10T21:00:33.747Z,95564.95
2019-06-10T21:03:23.149Z,95546.29
2019-06-10T21:06:13.014Z,95569.11
2019-06-10T21:09:02.928Z,95573.28
2019-06-10T21:11:51.912Z,95559.84
2019-06-10T21:14:39.809Z,95535.37
2019-06-10T21:17:29.296Z,95534.85
2019-06-10T21:20:16.761Z,95543.06
2019-06-10T21:23:04.545Z,95556.12
2019-06-10T21:25:52.507Z,95570.63
2019-06-10T21:28:41.361Z,95571.48
2019-06-10T21:31:29.657Z,95575.93
2019-06-10T21:34:17.374Z,95575.49
2019-06-10T21:37:04.773Z,95571.78
2019-06-10T21:39:55.397Z,95535.56
2019-06-10T21:42:41.685Z,95522.36
2019-06-10T21:45:29.358Z,95522.33
2019-06-10T21:48:17.152Z,95530.06
2019-06-10T21:51:04.386Z,95537.97
2019-06-10T21:53:53.798Z,95531.95
2019-06-10T21:56:42.758Z,95527.15
2019-06-10T21:59:32.051Z,95503.88
2019-06-10T22:02:18.984Z,95502.66
2019-06-10T22:05:06.641Z,95502.30
2019-06-10T22:07:56.391Z,95501.44
2019-06-10T22:10:44.200Z,95506.33
2019-06-10T22:13:32.874Z,95500.08
2019-06-10T22:16:22.551Z,95500.28
2019-06-10T22:19:09.425Z,95520.83
2019-06-10T22:21:56.893Z,95519.59
2019-06-10T22:24:45.100Z,95516.80
2019-06-10T22:27:34.629Z,95502.67
2019-06-10T22:30:22.940Z,95489.69
2019-06-10T22:33:12.410Z,95473.98
2019-06-10T22:36:02.346Z,95434.25
2019-06-10T22:38:49.835Z,95436.95
2019-06-10T22:41:37.097Z,95478.84
2019-06-10T22:44:24.445Z,95488.03
2019-06-10T22:47:12.253Z,95519.73
2019-06-10T22:50:06.318Z,95560.70
2019-06-10T22:52:51.911Z,95565.59
2019-06-10T22:55:39.246Z,95573.41
2019-06-10T22:58:26.836Z,95594.44
2019-06-10T23:01:14.319Z,95562.73
2019-06-10T23:04:03.765Z,95525.47
2019-06-10T23:06:53.043Z,95500.94
2019-06-10T23:09:42.687Z,95490.90
2019-06-10T23:12:29.185Z,95490.96
2019-06-10T23:15:16.919Z,95496.22
2019-06-10T23:18:04.261Z,95503.37
2019-06-10T23:20:55.759Z,95488.91
2019-06-10T23:23:43.136Z,95502.66
2019-06-10T23:26:30.025Z,95503.53
2019-06-10T23:29:17.279Z,95486.96
2019-06-10T23:32:07.093Z,95498.66
2019-06-10T23:34:57.556Z,95524.06
2019-06-10T23:37:45.489Z,95543.99
2019-06-10T23:40:32.965Z,95553.45
2019-06-10T23:43:22.439Z,95553.45
2019-06-10T23:46:09.223Z,95549.37
2019-06-10T23:48:57.466Z,95544.44
2019-06-10T23:51:45.269Z,95561.47
2019-06-10T23:54:32.384Z,95551.63
2019-06-10T23:57:22.224Z,95539.45
